createdAt,value
2018-09-04T00:02:30.236Z,1.00
2018-09-04T00:05:02.872Z,1.10
2018-09-04T00:07:35.943Z,1.00
2018-09-04T00:10:09.289Z,1.00
2018-09-04T00:12:41.767Z,1.00
2018-09-04T00:15:14.515Z,1.00
2018-09-04T00:17:47.025Z,1.00
2018-09-04T00:20:18.923Z,1.00
2018-09-04T00:22:51.975Z,1.00
2018-09-04T00:25:24.244Z,1.00
2018-09-04T00:27:57.117Z,1.00
2018-09-04T00:30:29.596Z,1.00
2018-09-04T00:33:02.090Z,1.00
2018-09-04T00:35:34.847Z,1.00
2018-09-04T00:38:07.405Z,1.00
2018-09-04T00:40:39.939Z,1.00
2018-09-04T00:43:12.265Z,1.00
2018-09-04T00:45:44.542Z,1.00
2018-09-04T00:48:17.029Z,1.00
2018-09-04T00:50:49.855Z,1.00
2018-09-04T00:53:23.116Z,1.00
2018-09-04T00:55:55.762Z,1.00
2018-09-04T00:58:28.108Z,1.00
2018-09-04T01:01:00.336Z,1.00
2018-09-04T01:03:33.111Z,1.00
2018-09-04T01:06:05.483Z,1.00
2018-09-04T01:08:37.827Z,1.00
2018-09-04T01:11:10.227Z,1.00
2018-09-04T01:13:46.123Z,1.00
2018-09-04T01:16:18.642Z,1.00
2018-09-04T01:18:51.123Z,1.00
2018-09-04T01:21:23.303Z,1.00
2018-09-04T01:23:55.485Z,1.00
2018-09-04T01:26:27.838Z,1.00
2018-09-04T01:29:00.209Z,1.00
2018-09-04T01:31:32.326Z,1.00
2018-09-04T01:34:04.292Z,1.00
2018-09-04T01:36:36.268Z,1.00
2018-09-04T01:39:09.021Z,1.00
2018-09-04T01:41:41.284Z,1.00
2018-09-04T01:44:13.532Z,1.00
2018-09-04T01:46:46.205Z,1.00
2018-09-04T01:49:18.391Z,1.00
2018-09-04T01:51:52.207Z,1.00
2018-09-04T01:54:24.651Z,1.30
2018-09-04T01:56:56.788Z,1.40
2018-09-04T01:59:28.891Z,1.10
2018-09-04T02:02:01.172Z,1.80
2018-09-04T02:04:33.443Z,2.20
2018-09-04T02:07:05.788Z,2.90
2018-09-04T02:09:37.816Z,3.10
2018-09-04T02:12:10.208Z,3.40
2018-09-04T02:14:43.092Z,4.10
2018-09-04T02:17:15.627Z,4.60
2018-09-04T02:19:48.331Z,4.90
2018-09-04T02:22:21.037Z,5.10
2018-09-04T02:24:54.586Z,5.60
2018-09-04T02:27:27.043Z,6.10
2018-09-04T02:29:59.489Z,6.30
2018-09-04T02:32:32.084Z,6.50
2018-09-04T02:35:04.545Z,6.80
2018-09-04T02:37:36.764Z,6.70
2018-09-04T02:40:09.321Z,7.00
2018-09-04T02:42:42.321Z,7.30
2018-09-04T02:45:14.684Z,7.70
2018-09-04T02:47:46.860Z,7.70
2018-09-04T02:50:19.440Z,7.80
2018-09-04T02:52:51.814Z,8.20
2018-09-04T02:55:24.178Z,8.30
2018-09-04T02:57:56.847Z,8.30
2018-09-04T03:00:29.687Z,8.40
2018-09-04T03:03:02.266Z,8.20
2018-09-04T03:05:34.700Z,8.10
2018-09-04T03:08:07.047Z,8.30
2018-09-04T03:10:39.215Z,7.60
2018-09-04T03:13:11.574Z,7.70
2018-09-04T03:15:43.971Z,7.30
2018-09-04T03:18:16.262Z,6.80
2018-09-04T03:20:48.500Z,7.20
2018-09-04T03:23:21.428Z,7.00
2018-09-04T03:25:53.587Z,7.10
2018-09-04T03:28:25.689Z,7.00
2018-09-04T03:30:58.144Z,7.10
2018-09-04T03:33:30.084Z,7.30
2018-09-04T03:36:02.253Z,7.80
2018-09-04T03:38:34.731Z,8.00
2018-09-04T03:41:07.024Z,8.00
2018-09-04T03:43:39.746Z,8.70
2018-09-04T03:46:12.189Z,8.10
2018-09-04T03:48:44.496Z,8.30
2018-09-04T03:51:17.123Z,8.40
2018-09-04T03:53:49.784Z,8.30
2018-09-04T03:56:22.328Z,8.80
2018-09-04T03:58:54.526Z,8.70
2018-09-04T04:01:26.672Z,9.10
2018-09-04T04:03:58.814Z,8.90
2018-09-04T04:06:31.094Z,8.90
2018-09-04T04:09:03.441Z,9.00
2018-09-04T04:11:35.787Z,9.00
2018-09-04T04:14:08.484Z,8.90
2018-09-04T04:16:40.912Z,8.80
2018-09-04T04:19:13.510Z,8.90
2018-09-04T04:21:46.362Z,8.90
2018-09-04T04:24:18.463Z,8.90
2018-09-04T04:26:51.018Z,8.90
2018-09-04T04:29:23.641Z,8.90
2018-09-04T04:31:55.711Z,8.60
2018-09-04T04:34:28.079Z,8.70
2018-09-04T04:37:00.654Z,8.30
2018-09-04T04:39:32.845Z,8.30
2018-09-04T04:42:05.183Z,8.00
2018-09-04T04:44:37.818Z,8.20
2018-09-04T04:47:10.941Z,8.40
2018-09-04T04:49:43.520Z,8.40
2018-09-04T04:52:15.720Z,8.70
2018-09-04T04:54:48.569Z,8.30
2018-09-04T04:57:21.162Z,8.70
2018-09-04T04:59:53.943Z,9.30
2018-09-04T05:02:26.412Z,9.20
2018-09-04T05:04:58.614Z,9.30
2018-09-04T05:07:31.172Z,9.70
2018-09-04T05:10:03.513Z,10.00
2018-09-04T05:12:36.506Z,10.40
2018-09-04T05:15:09.056Z,10.30
2018-09-04T05:17:41.606Z,10.80
2018-09-04T05:20:17.304Z,10.80
2018-09-04T05:22:49.947Z,11.40
2018-09-04T05:25:22.251Z,11.10
2018-09-04T05:27:55.257Z,11.20
2018-09-04T05:30:27.380Z,11.70
2018-09-04T05:33:04.494Z,11.70
2018-09-04T05:35:41.037Z,11.40
2018-09-04T05:38:13.839Z,11.60
2018-09-04T05:40:46.369Z,11.60
2018-09-04T05:43:22.733Z,11.70
2018-09-04T05:45:56.500Z,12.40
2018-09-04T05:48:29.225Z,11.90
2018-09-04T05:51:01.831Z,12.50
2018-09-04T05:53:34.589Z,12.70
2018-09-04T05:56:07.527Z,12.80
2018-09-04T05:58:40.032Z,13.00
2018-09-04T06:01:12.439Z,13.10
2018-09-04T06:03:45.139Z,13.30
2018-09-04T06:06:17.421Z,13.50
2018-09-04T06:08:49.988Z,13.80
2018-09-04T06:11:22.304Z,13.90
2018-09-04T06:13:54.436Z,14.30
2018-09-04T06:16:26.793Z,14.80
2018-09-04T06:18:58.975Z,14.90
2018-09-04T06:21:31.185Z,15.00
2018-09-04T06:24:04.236Z,15.10
2018-09-04T06:26:36.728Z,15.40
2018-09-04T06:29:09.333Z,16.00
2018-09-04T06:31:41.820Z,16.60
2018-09-04T06:34:14.823Z,16.80
2018-09-04T06:36:47.650Z,17.10
2018-09-04T06:39:19.935Z,17.80
2018-09-04T06:41:52.754Z,18.10
2018-09-04T06:44:25.405Z,18.20
2018-09-04T06:46:58.178Z,19.00
2018-09-04T06:49:30.774Z,19.20
2018-09-04T06:52:03.112Z,19.40
2018-09-04T06:54:36.024Z,19.80
2018-09-04T06:57:08.195Z,20.40
2018-09-04T06:59:40.620Z,20.50
2018-09-04T07:02:12.993Z,21.00
2018-09-04T07:04:45.533Z,21.00
2018-09-04T07:07:17.924Z,21.30
2018-09-04T07:09:50.403Z,21.30
2018-09-04T07:12:22.769Z,21.40
2018-09-04T07:14:55.390Z,21.90
2018-09-04T07:17:28.289Z,22.10
2018-09-04T07:20:00.052Z,22.50
2018-09-04T07:22:32.269Z,22.60
2018-09-04T07:25:04.530Z,23.10
2018-09-04T07:27:36.723Z,23.60
2018-09-04T07:30:09.374Z,23.40
2018-09-04T07:32:42.003Z,23.70
2018-09-04T07:35:14.420Z,24.10
2018-09-04T07:37:46.638Z,24.30
2018-09-04T07:40:19.026Z,24.80
2018-09-04T07:42:51.195Z,25.00
2018-09-04T07:45:23.630Z,25.20
2018-09-04T07:47:55.986Z,25.40
2018-09-04T07:50:28.706Z,25.50
2018-09-04T07:53:01.178Z,25.60
2018-09-04T07:55:33.444Z,26.10
2018-09-04T07:58:05.937Z,26.60
2018-09-04T08:00:39.327Z,26.30
2018-09-04T08:03:11.696Z,26.50
2018-09-04T08:05:44.176Z,26.70
2018-09-04T08:08:16.748Z,27.00
2018-09-04T08:10:49.312Z,27.10
2018-09-04T08:13:21.723Z,27.80
2018-09-04T08:15:53.882Z,27.70
2018-09-04T08:18:26.481Z,27.40
2018-09-04T08:20:59.262Z,28.10
2018-09-04T08:23:31.399Z,28.10
2018-09-04T08:26:03.816Z,28.40
2018-09-04T08:28:36.134Z,28.10
2018-09-04T08:31:08.639Z,29.50
2018-09-04T08:33:40.993Z,28.90
2018-09-04T08:36:13.382Z,29.30
2018-09-04T08:38:51.493Z,29.20
2018-09-04T08:41:23.826Z,29.70
2018-09-04T08:43:56.254Z,29.70
2018-09-04T08:46:28.778Z,30.00
2018-09-04T08:49:00.967Z,30.10
2018-09-04T08:51:33.158Z,29.90
2018-09-04T08:54:05.513Z,30.10
2018-09-04T08:56:37.695Z,30.00
2018-09-04T08:59:10.534Z,30.20
2018-09-04T09:01:43.260Z,30.30
2018-09-04T09:04:15.856Z,30.40
2018-09-04T09:06:48.427Z,30.30
2018-09-04T09:09:20.824Z,30.80
2018-09-04T09:11:53.003Z,30.70
2018-09-04T09:14:25.565Z,30.60
2018-09-04T09:16:57.906Z,30.50
2018-09-04T09:19:30.309Z,31.30
2018-09-04T09:22:02.456Z,31.10
2018-09-04T09:24:35.154Z,31.80
2018-09-04T09:27:07.925Z,32.20
2018-09-04T09:29:40.475Z,32.20
2018-09-04T09:32:12.875Z,32.30
2018-09-04T09:34:45.049Z,32.70
2018-09-04T09:37:17.863Z,32.90
2018-09-04T09:39:50.160Z,33.00
2018-09-04T09:42:22.199Z,33.30
2018-09-04T09:44:54.141Z,33.30
2018-09-04T09:47:25.939Z,33.10
2018-09-04T09:49:57.845Z,33.40
2018-09-04T09:52:29.671Z,33.60
2018-09-04T09:55:01.629Z,35.20
2018-09-04T09:57:33.497Z,34.30
2018-09-04T10:00:05.473Z,34.40
2018-09-04T10:02:41.851Z,35.00
2018-09-04T10:05:13.676Z,35.10
2018-09-04T10:07:45.939Z,35.20
2018-09-04T10:10:17.939Z,35.90
2018-09-04T10:12:49.870Z,36.20
2018-09-04T10:15:21.898Z,35.90
2018-09-04T10:17:53.768Z,35.90
2018-09-04T10:20:25.732Z,36.70
2018-09-04T10:22:57.709Z,37.40
2018-09-04T10:25:29.635Z,37.60
2018-09-04T10:28:01.632Z,38.10
2018-09-04T10:30:34.076Z,37.90
2018-09-04T10:33:06.208Z,38.10
2018-09-04T10:35:38.473Z,38.50
2018-09-04T10:38:10.549Z,38.80
2018-09-04T10:40:44.205Z,38.60
2018-09-04T10:43:16.366Z,40.40
2018-09-04T10:45:52.944Z,40.20
2018-09-04T10:48:26.404Z,40.70
2018-09-04T10:50:58.572Z,41.60
2018-09-04T10:53:30.733Z,41.30
2018-09-04T10:56:02.888Z,40.80
2018-09-04T10:58:34.916Z,41.30
2018-09-04T11:01:07.063Z,42.30
2018-09-04T11:03:38.946Z,43.50
2018-09-04T11:06:10.954Z,43.20
2018-09-04T11:08:43.163Z,43.10
2018-09-04T11:11:15.089Z,43.70
2018-09-04T11:13:47.084Z,44.20
2018-09-04T11:16:19.453Z,44.90
2018-09-04T11:18:51.335Z,46.20
2018-09-04T11:21:23.389Z,47.30
2018-09-04T11:23:55.265Z,48.30
2018-09-04T11:26:27.100Z,47.50
2018-09-04T11:29:02.127Z,47.40
2018-09-04T11:31:34.299Z,47.70
2018-09-04T11:34:06.421Z,48.00
2018-09-04T11:36:38.215Z,48.20
2018-09-04T11:39:12.386Z,48.50
2018-09-04T11:41:44.392Z,49.00
2018-09-04T11:44:16.320Z,48.80
2018-09-04T11:46:48.294Z,48.70
2018-09-04T11:49:21.060Z,49.30
2018-09-04T11:51:53.076Z,49.50
2018-09-04T11:54:24.988Z,49.00
2018-09-04T11:56:56.887Z,49.30
2018-09-04T11:59:29.175Z,48.90
2018-09-04T12:02:01.776Z,49.30
2018-09-04T12:04:34.202Z,48.90
2018-09-04T12:07:06.268Z,49.70
2018-09-04T12:09:38.590Z,50.90
2018-09-04T12:12:14.776Z,50.30
2018-09-04T12:14:46.616Z,49.60
2018-09-04T12:17:18.412Z,50.10
2018-09-04T12:20:11.168Z,50.70
2018-09-04T12:22:42.998Z,50.90
2018-09-04T12:25:15.195Z,51.50
2018-09-04T12:27:47.600Z,51.70
2018-09-04T12:30:19.737Z,52.80
2018-09-04T12:32:51.690Z,52.80
2018-09-04T12:35:23.677Z,53.70
2018-09-04T12:37:55.713Z,53.00
2018-09-04T12:40:27.653Z,52.80
2018-09-04T12:43:00.044Z,52.00
2018-09-04T12:45:36.310Z,52.70
2018-09-04T12:48:08.846Z,53.50
2018-09-04T12:50:41.057Z,53.60
2018-09-04T12:53:13.033Z,54.20
2018-09-04T12:55:45.185Z,54.70
2018-09-04T12:58:17.146Z,56.40
2018-09-04T13:00:50.270Z,57.60
2018-09-04T13:03:24.548Z,58.50
2018-09-04T13:05:56.621Z,59.30
2018-09-04T13:08:30.830Z,58.30
2018-09-04T13:11:02.790Z,58.30
2018-09-04T13:13:34.708Z,58.80
2018-09-04T13:16:06.805Z,58.50
2018-09-04T13:18:38.940Z,58.10
2018-09-04T13:21:10.943Z,57.90
2018-09-04T13:23:43.069Z,57.90
2018-09-04T13:26:15.276Z,57.90
2018-09-04T13:28:47.445Z,57.70
2018-09-04T13:31:19.557Z,57.70
2018-09-04T13:33:51.568Z,57.60
2018-09-04T13:36:23.738Z,58.10
2018-09-04T13:38:55.901Z,58.30
2018-09-04T13:41:31.975Z,58.90
2018-09-04T13:44:03.953Z,60.00
2018-09-04T13:46:35.899Z,60.20
2018-09-04T13:49:08.090Z,60.50
2018-09-04T13:51:40.439Z,60.30
2018-09-04T13:54:12.288Z,60.60
2018-09-04T13:56:44.140Z,60.70
2018-09-04T13:59:16.308Z,61.20
2018-09-04T14:01:48.471Z,61.60
2018-09-04T14:04:20.616Z,62.30
2018-09-04T14:06:52.575Z,63.30
2018-09-04T14:09:24.572Z,63.10
2018-09-04T14:11:56.687Z,62.90
2018-09-04T14:14:28.705Z,62.80
2018-09-04T14:17:01.171Z,62.70
2018-09-04T14:19:33.660Z,62.90
2018-09-04T14:22:05.843Z,63.20
2018-09-04T14:24:38.261Z,62.70
2018-09-04T14:27:10.623Z,62.70
2018-09-04T14:29:53.657Z,62.60
2018-09-04T14:32:15.302Z,62.80
2018-09-04T14:34:47.512Z,63.00
2018-09-04T14:37:19.947Z,63.10
2018-09-04T14:39:55.586Z,63.20
2018-09-04T14:42:24.897Z,62.90
2018-09-04T14:44:58.573Z,62.80
2018-09-04T14:47:31.083Z,62.20
2018-09-04T14:50:03.287Z,60.80
2018-09-04T14:52:35.653Z,60.40
2018-09-04T14:55:08.227Z,60.00
2018-09-04T14:57:40.357Z,58.20
2018-09-04T15:00:12.552Z,57.50
2018-09-04T15:02:44.880Z,55.80
2018-09-04T15:05:17.298Z,54.90
2018-09-04T15:07:50.022Z,53.70
2018-09-04T15:10:22.333Z,52.30
2018-09-04T15:12:54.624Z,51.80
2018-09-04T15:15:26.945Z,51.10
2018-09-04T15:17:59.495Z,50.30
2018-09-04T15:20:31.563Z,49.30
2018-09-04T15:23:03.726Z,49.10
2018-09-04T15:25:36.622Z,47.20
2018-09-04T15:28:09.300Z,44.00
2018-09-04T15:30:42.560Z,42.90
2018-09-04T15:33:14.911Z,40.50
2018-09-04T15:35:47.293Z,39.80
2018-09-04T15:38:19.637Z,39.10
2018-09-04T15:40:52.051Z,37.10
2018-09-04T15:43:24.379Z,35.90
2018-09-04T15:45:56.608Z,36.40
2018-09-04T15:48:28.896Z,34.30
2018-09-04T15:51:01.254Z,33.40
2018-09-04T15:53:33.394Z,29.20
2018-09-04T15:56:05.881Z,24.10
2018-09-04T15:58:38.177Z,22.10
2018-09-04T16:01:10.801Z,17.10
2018-09-04T16:03:42.951Z,15.00
2018-09-04T16:06:15.238Z,10.60
2018-09-04T16:08:47.388Z,9.50
2018-09-04T16:11:19.758Z,6.90
2018-09-04T16:13:52.162Z,4.70
2018-09-04T16:16:24.398Z,4.90
2018-09-04T16:18:56.777Z,3.70
2018-09-04T16:21:29.378Z,3.30
2018-09-04T16:24:01.705Z,2.20
2018-09-04T16:26:34.125Z,2.90
2018-09-04T16:29:06.310Z,1.00
2018-09-04T16:31:38.636Z,1.50
2018-09-04T16:34:11.063Z,2.50
2018-09-04T16:36:43.192Z,3.10
2018-09-04T16:39:16.478Z,4.30
2018-09-04T16:41:48.732Z,5.30
2018-09-04T16:44:20.887Z,6.50
2018-09-04T16:46:53.220Z,6.90
2018-09-04T16:49:28.300Z,7.90
2018-09-04T16:52:01.920Z,8.90
2018-09-04T16:54:34.529Z,11.30
2018-09-04T16:57:06.783Z,13.30
2018-09-04T16:59:39.501Z,13.80
2018-09-04T17:02:11.753Z,13.50
2018-09-04T17:04:44.040Z,15.40
2018-09-04T17:07:16.249Z,14.90
2018-09-04T17:09:48.558Z,15.30
2018-09-04T17:12:21.156Z,15.90
2018-09-04T17:14:53.509Z,16.00
2018-09-04T17:17:25.908Z,16.70
2018-09-04T17:19:58.061Z,17.00
2018-09-04T17:22:30.427Z,16.90
2018-09-04T17:25:02.971Z,17.10
2018-09-04T17:27:35.204Z,16.40
2018-09-04T17:30:07.800Z,16.80
2018-09-04T17:32:40.168Z,18.10
2018-09-04T17:35:12.501Z,17.50
2018-09-04T17:37:44.707Z,17.30
2018-09-04T17:40:17.038Z,17.50
2018-09-04T17:42:50.225Z,17.20
2018-09-04T17:45:22.618Z,17.60
2018-09-04T17:47:55.214Z,17.90
2018-09-04T17:50:27.842Z,17.70
2018-09-04T17:53:00.060Z,17.70
2018-09-04T17:55:32.192Z,17.80
2018-09-04T17:58:04.888Z,17.10
2018-09-04T18:00:37.312Z,16.90
2018-09-04T18:03:09.863Z,17.30
2018-09-04T18:05:42.286Z,16.70
2018-09-04T18:08:14.345Z,16.90
2018-09-04T18:10:46.744Z,15.10
2018-09-04T18:13:18.916Z,15.10
2018-09-04T18:15:51.301Z,14.70
2018-09-04T18:18:23.493Z,14.80
2018-09-04T18:20:56.069Z,15.30
2018-09-04T18:23:28.442Z,14.00
2018-09-04T18:26:00.728Z,13.70
2018-09-04T18:28:32.832Z,13.90
2018-09-04T18:31:05.641Z,14.00
2018-09-04T18:33:38.155Z,14.20
2018-09-04T18:36:10.609Z,13.50
2018-09-04T18:38:43.396Z,13.60
2018-09-04T18:41:15.507Z,13.20
2018-09-04T18:43:47.925Z,12.30
2018-09-04T18:46:20.284Z,13.50
2018-09-04T18:48:55.619Z,13.60
2018-09-04T18:51:28.053Z,13.50
2018-09-04T18:54:00.631Z,12.50
2018-09-04T18:56:33.202Z,12.40
2018-09-04T18:59:05.631Z,12.70
2018-09-04T19:01:38.185Z,13.20
2018-09-04T19:04:10.735Z,13.60
2018-09-04T19:06:43.347Z,12.80
2018-09-04T19:09:15.464Z,12.20
2018-09-04T19:11:47.856Z,12.50
2018-09-04T19:14:20.060Z,12.50
2018-09-04T19:16:52.477Z,11.90
2018-09-04T19:19:24.750Z,11.30
2018-09-04T19:21:57.120Z,11.50
2018-09-04T19:24:29.871Z,11.40
2018-09-04T19:27:02.106Z,11.90
2018-09-04T19:29:34.432Z,11.60
2018-09-04T19:32:06.825Z,10.80
2018-09-04T19:34:39.364Z,10.30
2018-09-04T19:37:11.893Z,10.00
2018-09-04T19:39:44.088Z,9.40
2018-09-04T19:42:16.524Z,9.50
2018-09-04T19:44:49.008Z,8.80
2018-09-04T19:47:21.579Z,8.70
2018-09-04T19:49:54.346Z,7.90
2018-09-04T19:52:26.771Z,8.10
2018-09-04T19:54:58.909Z,7.50
2018-09-04T19:57:31.338Z,7.90
2018-09-04T20:00:03.806Z,8.30
2018-09-04T20:02:35.870Z,8.50
2018-09-04T20:05:08.943Z,8.10
2018-09-04T20:07:41.388Z,8.40
2018-09-04T20:10:13.433Z,8.00
2018-09-04T20:12:45.956Z,8.00
2018-09-04T20:15:17.938Z,8.00
2018-09-04T20:17:51.172Z,7.70
2018-09-04T20:20:23.513Z,6.70
2018-09-04T20:22:56.092Z,7.10
2018-09-04T20:25:28.489Z,7.30
2018-09-04T20:28:00.792Z,6.60
2018-09-04T20:30:33.113Z,6.50
2018-09-04T20:33:05.545Z,6.80
2018-09-04T20:35:38.074Z,5.70
2018-09-04T20:38:10.252Z,5.60
2018-09-04T20:40:42.576Z,5.00
2018-09-04T20:43:15.241Z,4.90
2018-09-04T20:45:47.528Z,4.50
2018-09-04T20:48:19.864Z,4.60
2018-09-04T20:50:52.667Z,5.10
2018-09-04T20:53:25.290Z,4.70
2018-09-04T20:55:57.671Z,4.80
2018-09-04T20:58:39.432Z,4.80
2018-09-04T21:01:20.648Z,4.70
2018-09-04T21:04:02.390Z,4.70
2018-09-04T21:06:45.684Z,4.20
2018-09-04T21:09:30.291Z,3.90
2018-09-04T21:12:02.927Z,3.60
2018-09-04T21:14:35.757Z,3.30
2018-09-04T21:17:08.114Z,3.00
2018-09-04T21:19:40.589Z,2.60
2018-09-04T21:22:12.990Z,3.30
2018-09-04T21:24:45.360Z,2.90
2018-09-04T21:27:17.509Z,2.10
2018-09-04T21:29:50.083Z,2.80
2018-09-04T21:32:23.070Z,1.40
2018-09-04T21:34:55.561Z,1.10
2018-09-04T21:37:27.746Z,1.00
2018-09-04T21:40:00.280Z,1.00
2018-09-04T21:42:32.854Z,1.00
2018-09-04T21:45:05.546Z,1.00
2018-09-04T21:47:38.015Z,1.10
2018-09-04T21:50:10.758Z,1.00
2018-09-04T21:52:43.193Z,1.00
2018-09-04T21:55:15.998Z,1.00
2018-09-04T21:57:48.937Z,1.00
2018-09-04T22:00:26.595Z,1.00
2018-09-04T22:02:59.644Z,1.00
2018-09-04T22:05:32.180Z,1.00
2018-09-04T22:08:04.569Z,1.00
2018-09-04T22:10:36.907Z,1.00
2018-09-04T22:13:10.374Z,1.00
2018-09-04T22:15:42.783Z,1.00
2018-09-04T22:18:15.061Z,1.00
2018-09-04T22:20:47.538Z,1.00
2018-09-04T22:23:19.843Z,1.00
2018-09-04T22:25:52.813Z,1.00
2018-09-04T22:28:25.311Z,1.00
2018-09-04T22:30:57.538Z,1.00
2018-09-04T22:33:30.816Z,1.00
2018-09-04T22:36:03.526Z,1.00
2018-09-04T22:38:35.876Z,1.00
2018-09-04T22:41:08.548Z,1.00
2018-09-04T22:43:40.620Z,1.00
2018-09-04T22:46:13.040Z,1.00
2018-09-04T22:48:45.362Z,1.00
2018-09-04T22:51:22.544Z,1.00
2018-09-04T22:53:54.779Z,1.00
2018-09-04T22:56:27.635Z,1.00
2018-09-04T22:59:00.358Z,1.00
2018-09-04T23:01:33.000Z,1.00
2018-09-04T23:04:05.581Z,1.00
2018-09-04T23:06:37.960Z,1.00
2018-09-04T23:09:10.614Z,1.00
2018-09-04T23:11:42.847Z,1.00
2018-09-04T23:14:15.364Z,1.00
2018-09-04T23:16:47.784Z,1.00
2018-09-04T23:19:20.176Z,1.00
2018-09-04T23:21:52.716Z,1.00
2018-09-04T23:24:25.097Z,1.00
2018-09-04T23:26:57.716Z,1.00
2018-09-04T23:29:30.066Z,1.00
2018-09-04T23:32:02.829Z,1.00
2018-09-04T23:34:36.109Z,1.00
2018-09-04T23:37:08.405Z,1.00
2018-09-04T23:39:40.604Z,1.00
2018-09-04T23:42:13.153Z,1.00
2018-09-04T23:44:45.542Z,1.00
2018-09-04T23:47:17.704Z,1.00
2018-09-04T23:49:50.436Z,1.00
2018-09-04T23:52:22.528Z,1.00
2018-09-04T23:54:55.027Z,1.00
2018-09-04T23:57:27.690Z,1.00
